sensor_id;sensor_type;location;lat;lon;timestamp;P1;durP1;ratioP1;P2;durP2;ratioP2
6953;SDS011;3516;47.980;8.808;2023-04-01T05:10:37;0.60;;;0.60;;
6953;SDS011;3516;47.980;8.808;2023-04-01T05:13:04;1.38;;;1.02;;
6953;SDS011;3516;47.980;8.808;2023-04-01T05:15:31;0.77;;;0.50;;
6953;SDS011;3516;47.980;8.808;2023-04-01T05:17:58;0.40;;;0.40;;
6953;SDS011;3516;47.980;8.808;2023-04-01T05:20:24;3.80;;;0.52;;
6953;SDS011;3516;47.980;8.808;2023-04-01T05:22:55;2.97;;;0.50;;
6953;SDS011;3516;47.980;8.808;2023-04-01T05:25:22;0.68;;;0.40;;
6953;SDS011;3516;47.980;8.808;2023-04-01T05:27:50;0.40;;;0.40;;
6953;SDS011;3516;47.980;8.808;2023-04-01T05:30:16;1.00;;;0.50;;
6953;SDS011;3516;47.980;8.808;2023-04-01T05:32:44;0.30;;;0.30;;
6953;SDS011;3516;47.980;8.808;2023-04-01T05:35:10;0.43;;;0.43;;
6953;SDS011;3516;47.980;8.808;2023-04-01T05:37:37;2.28;;;0.50;;
6953;SDS011;3516;47.980;8.808;2023-04-01T05:40:05;0.60;;;0.60;;
6953;SDS011;3516;47.980;8.808;2023-04-01T05:42:32;2.10;;;0.50;;
6953;SDS011;3516;47.980;8.808;2023-04-01T05:45:00;0.45;;;0.45;;
6953;SDS011;3516;47.980;8.808;2023-04-01T05:47:27;0.90;;;0.90;;
6953;SDS011;3516;47.980;8.808;2023-04-01T05:49:54;0.57;;;0.40;;
6953;SDS011;3516;47.980;8.808;2023-04-01T05:52:21;2.92;;;0.50;;
6953;SDS011;3516;47.980;8.808;2023-04-01T05:54:48;2.38;;;0.43;;
6953;SDS011;3516;47.980;8.808;2023-04-01T05:57:14;1.75;;;0.40;;
6953;SDS011;3516;47.980;8.808;2023-04-01T05:59:41;0.50;;;0.50;;
6953;SDS011;3516;47.980;8.808;2023-04-01T06:02:09;1.45;;;0.47;;
6953;SDS011;3516;47.980;8.808;2023-04-01T06:04:37;0.75;;;0.40;;
6953;SDS011;3516;47.980;8.808;2023-04-01T06:07:05;0.55;;;0.55;;
6953;SDS011;3516;47.980;8.808;2023-04-01T06:09:40;0.70;;;0.40;;
6953;SDS011;3516;47.980;8.808;2023-04-01T06:12:16;3.60;;;0.50;;
6953;SDS011;3516;47.980;8.808;2023-04-01T06:14:57;0.50;;;0.45;;
6953;SDS011;3516;47.980;8.808;2023-04-01T06:17:41;0.70;;;0.40;;
6953;SDS011;3516;47.980;8.808;2023-04-01T06:20:19;0.40;;;0.40;;
6953;SDS011;3516;47.980;8.808;2023-04-01T06:22:56;0.60;;;0.50;;
6953;SDS011;3516;47.980;8.808;2023-04-01T06:25:35;1.60;;;0.40;;
6953;SDS011;3516;47.980;8.808;2023-04-01T06:28:36;0.68;;;0.52;;
6953;SDS011;3516;47.980;8.808;2023-04-01T06:31:26;3.92;;;0.50;;
6953;SDS011;3516;47.980;8.808;2023-04-01T06:34:20;2.85;;;0.63;;
6953;SDS011;3516;47.980;8.808;2023-04-01T06:37:08;0.50;;;0.50;;
6953;SDS011;3516;47.980;8.808;2023-04-01T06:39:54;0.40;;;0.40;;
6953;SDS011;3516;47.980;8.808;2023-04-01T06:42:54;0.40;;;0.40;;
6953;SDS011;3516;47.980;8.808;2023-04-01T06:45:34;2.97;;;0.52;;
6953;SDS011;3516;47.980;8.808;2023-04-01T06:48:12;3.53;;;0.50;;
6953;SDS011;3516;47.980;8.808;2023-04-01T06:50:52;0.52;;;0.50;;
6953;SDS011;3516;47.980;8.808;2023-04-01T06:53:29;1.70;;;0.30;;
6953;SDS011;3516;47.980;8.808;2023-04-01T06:56:02;2.33;;;0.50;;
6953;SDS011;3516;47.980;8.808;2023-04-01T06:58:34;1.98;;;0.45;;
6953;SDS011;3516;47.980;8.808;2023-04-01T07:01:04;0.95;;;0.50;;
6953;SDS011;3516;47.980;8.808;2023-04-01T07:03:35;0.65;;;0.43;;
6953;SDS011;3516;47.980;8.808;2023-04-01T07:06:08;1.65;;;0.50;;
6953;SDS011;3516;47.980;8.808;2023-04-01T07:08:39;0.60;;;0.60;;
6953;SDS011;3516;47.980;8.808;2023-04-01T07:11:09;0.40;;;0.40;;
6953;SDS011;3516;47.980;8.808;2023-04-01T07:13:41;2.42;;;0.60;;
6953;SDS011;3516;47.980;8.808;2023-04-01T07:16:15;0.60;;;0.50;;
6953;SDS011;3516;47.980;8.808;2023-04-01T07:18:46;1.80;;;0.57;;
6953;SDS011;3516;47.980;8.808;2023-04-01T07:21:25;1.27;;;0.55;;
6953;SDS011;3516;47.980;8.808;2023-04-01T07:23:57;1.08;;;0.60;;
6953;SDS011;3516;47.980;8.808;2023-04-01T07:26:30;2.75;;;0.40;;
6953;SDS011;3516;47.980;8.808;2023-04-01T07:28:57;0.40;;;0.40;;
6953;SDS011;3516;47.980;8.808;2023-04-01T07:31:30;0.40;;;0.40;;
6953;SDS011;3516;47.980;8.808;2023-04-01T07:34:09;3.20;;;0.50;;
6953;SDS011;3516;47.980;8.808;2023-04-01T07:36:43;0.43;;;0.43;;
6953;SDS011;3516;47.980;8.808;2023-04-01T07:39:18;0.40;;;0.40;;
6953;SDS011;3516;47.980;8.808;2023-04-01T07:41:55;2.83;;;0.40;;
6953;SDS011;3516;47.980;8.808;2023-04-01T07:44:28;0.40;;;0.40;;
6953;SDS011;3516;47.980;8.808;2023-04-01T07:47:07;0.75;;;0.50;;
6953;SDS011;3516;47.980;8.808;2023-04-01T07:49:47;0.65;;;0.40;;
6953;SDS011;3516;47.980;8.808;2023-04-01T07:52:22;1.08;;;0.40;;
6953;SDS011;3516;47.980;8.808;2023-04-01T07:54:57;2.10;;;0.40;;
6953;SDS011;3516;47.980;8.808;2023-04-01T07:57:30;0.40;;;0.40;;
6953;SDS011;3516;47.980;8.808;2023-04-01T08:00:04;0.40;;;0.40;;
6953;SDS011;3516;47.980;8.808;2023-04-01T08:02:39;0.60;;;0.30;;
6953;SDS011;3516;47.980;8.808;2023-04-01T08:05:19;0.73;;;0.40;;
6953;SDS011;3516;47.980;8.808;2023-04-01T08:07:54;0.45;;;0.40;;
6953;SDS011;3516;47.980;8.808;2023-04-01T08:10:30;0.43;;;0.40;;
6953;SDS011;3516;47.980;8.808;2023-04-01T08:13:03;1.55;;;0.40;;
6953;SDS011;3516;47.980;8.808;2023-04-01T08:15:37;0.40;;;0.40;;
6953;SDS011;3516;47.980;8.808;2023-04-01T08:18:14;0.55;;;0.55;;
6953;SDS011;3516;47.980;8.808;2023-04-01T08:20:48;0.55;;;0.40;;
6953;SDS011;3516;47.980;8.808;2023-04-01T08:23:22;0.50;;;0.50;;
6953;SDS011;3516;47.980;8.808;2023-04-01T08:25:53;2.22;;;0.43;;
6953;SDS011;3516;47.980;8.808;2023-04-01T08:28:25;0.60;;;0.57;;
6953;SDS011;3516;47.980;8.808;2023-04-01T08:30:57;0.47;;;0.40;;
6953;SDS011;3516;47.980;8.808;2023-04-01T08:33:25;0.52;;;0.40;;
6953;SDS011;3516;47.980;8.808;2023-04-01T08:35:54;2.38;;;0.60;;
6953;SDS011;3516;47.980;8.808;2023-04-01T08:38:26;1.52;;;0.40;;
6953;SDS011;3516;47.980;8.808;2023-04-01T08:43:41;0.52;;;0.40;;
6953;SDS011;3516;47.980;8.808;2023-04-01T08:46:37;0.50;;;0.45;;
6953;SDS011;3516;47.980;8.808;2023-04-01T08:49:21;1.05;;;0.40;;
6953;SDS011;3516;47.980;8.808;2023-04-01T08:55:10;0.50;;;0.50;;
6953;SDS011;3516;47.980;8.808;2023-04-01T08:58:06;1.35;;;1.25;;
6953;SDS011;3516;47.980;8.808;2023-04-01T09:00:47;0.77;;;0.60;;
6953;SDS011;3516;47.980;8.808;2023-04-01T09:03:21;1.08;;;0.57;;
6953;SDS011;3516;47.980;8.808;2023-04-01T09:06:05;2.95;;;0.70;;
6953;SDS011;3516;47.980;8.808;2023-04-01T09:08:53;1.55;;;0.40;;
6953;SDS011;3516;47.980;8.808;2023-04-01T09:11:37;0.60;;;0.60;;
6953;SDS011;3516;47.980;8.808;2023-04-01T09:14:23;1.55;;;0.32;;
6953;SDS011;3516;47.980;8.808;2023-04-01T09:17:17;0.82;;;0.50;;
6953;SDS011;3516;47.980;8.808;2023-04-01T09:20:03;0.50;;;0.50;;
6953;SDS011;3516;47.980;8.808;2023-04-01T09:22:50;0.40;;;0.40;;
6953;SDS011;3516;47.980;8.808;2023-04-01T09:25:31;2.53;;;0.40;;
6953;SDS011;3516;47.980;8.808;2023-04-01T09:28:10;1.40;;;0.40;;
6953;SDS011;3516;47.980;8.808;2023-04-01T09:30:57;0.55;;;0.50;;
6953;SDS011;3516;47.980;8.808;2023-04-01T09:34:00;0.40;;;0.40;;
6953;SDS011;3516;47.980;8.808;2023-04-01T09:36:49;1.55;;;0.50;;
6953;SDS011;3516;47.980;8.808;2023-04-01T09:39:31;0.40;;;0.40;;
6953;SDS011;3516;47.980;8.808;2023-04-01T09:45:09;1.08;;;0.40;;
6953;SDS011;3516;47.980;8.808;2023-04-01T09:47:53;0.40;;;0.40;;
6953;SDS011;3516;47.980;8.808;2023-04-01T09:50:30;1.38;;;0.30;;
6953;SDS011;3516;47.980;8.808;2023-04-01T09:53:09;1.27;;;1.23;;
6953;SDS011;3516;47.980;8.808;2023-04-01T09:55:50;0.30;;;0.30;;
6953;SDS011;3516;47.980;8.808;2023-04-01T10:01:53;0.90;;;0.90;;
6953;SDS011;3516;47.980;8.808;2023-04-01T10:04:40;0.52;;;0.52;;
6953;SDS011;3516;47.980;8.808;2023-04-01T10:10:56;0.50;;;0.50;;
6953;SDS011;3516;47.980;8.808;2023-04-01T10:13:52;0.40;;;0.40;;
6953;SDS011;3516;47.980;8.808;2023-04-01T10:20:01;0.50;;;0.50;;
6953;SDS011;3516;47.980;8.808;2023-04-01T10:23:02;0.70;;;0.65;;
6953;SDS011;3516;47.980;8.808;2023-04-01T10:28:49;0.43;;;0.43;;
6953;SDS011;3516;47.980;8.808;2023-04-01T10:31:53;0.40;;;0.40;;
6953;SDS011;3516;47.980;8.808;2023-04-01T10:35:01;1.75;;;0.90;;
6953;SDS011;3516;47.980;8.808;2023-04-01T10:38:14;0.57;;;0.57;;
6953;SDS011;3516;47.980;8.808;2023-04-01T10:41:09;0.70;;;0.70;;
6953;SDS011;3516;47.980;8.808;2023-04-01T10:44:33;1.02;;;1.02;;
6953;SDS011;3516;47.980;8.808;2023-04-01T10:50:25;0.73;;;0.73;;
6953;SDS011;3516;47.980;8.808;2023-04-01T10:53:12;0.73;;;0.73;;
6953;SDS011;3516;47.980;8.808;2023-04-01T10:56:10;0.60;;;0.60;;
6953;SDS011;3516;47.980;8.808;2023-04-01T11:05:31;0.70;;;0.70;;
6953;SDS011;3516;47.980;8.808;2023-04-01T11:08:39;0.88;;;0.60;;
6953;SDS011;3516;47.980;8.808;2023-04-01T11:11:39;0.80;;;0.50;;
6953;SDS011;3516;47.980;8.808;2023-04-01T11:14:46;1.33;;;0.50;;
6953;SDS011;3516;47.980;8.808;2023-04-01T11:17:42;1.80;;;0.50;;
6953;SDS011;3516;47.980;8.808;2023-04-01T11:23:46;1.38;;;0.60;;
6953;SDS011;3516;47.980;8.808;2023-04-01T11:26:22;0.57;;;0.40;;
6953;SDS011;3516;47.980;8.808;2023-04-01T11:29:09;0.50;;;0.50;;
6953;SDS011;3516;47.980;8.808;2023-04-01T11:31:55;0.50;;;0.50;;
6953;SDS011;3516;47.980;8.808;2023-04-01T11:34:51;0.50;;;0.50;;
6953;SDS011;3516;47.980;8.808;2023-04-01T11:37:33;0.60;;;0.60;;
6953;SDS011;3516;47.980;8.808;2023-04-01T11:40:12;0.47;;;0.47;;
6953;SDS011;3516;47.980;8.808;2023-04-01T11:42:49;0.43;;;0.40;;
6953;SDS011;3516;47.980;8.808;2023-04-01T11:45:31;0.40;;;0.40;;
6953;SDS011;3516;47.980;8.808;2023-04-01T11:48:17;1.88;;;0.52;;
6953;SDS011;3516;47.980;8.808;2023-04-01T11:51:03;0.77;;;0.50;;
6953;SDS011;3516;47.980;8.808;2023-04-01T11:53:43;0.50;;;0.50;;
6953;SDS011;3516;47.980;8.808;2023-04-01T11:56:26;1.17;;;0.60;;
6953;SDS011;3516;47.980;8.808;2023-04-01T11:59:04;0.30;;;0.30;;
6953;SDS011;3516;47.980;8.808;2023-04-01T12:02:02;0.52;;;0.40;;
6953;SDS011;3516;47.980;8.808;2023-04-01T12:04:36;0.50;;;0.50;;
6953;SDS011;3516;47.980;8.808;2023-04-01T12:07:15;0.45;;;0.45;;
6953;SDS011;3516;47.980;8.808;2023-04-01T12:09:52;0.40;;;0.40;;
6953;SDS011;3516;47.980;8.808;2023-04-01T12:12:30;0.32;;;0.32;;
6953;SDS011;3516;47.980;8.808;2023-04-01T12:15:05;0.30;;;0.30;;
6953;SDS011;3516;47.980;8.808;2023-04-01T12:17:45;0.57;;;0.40;;
6953;SDS011;3516;47.980;8.808;2023-04-01T12:20:22;0.30;;;0.30;;
6953;SDS011;3516;47.980;8.808;2023-04-01T12:23:09;0.73;;;0.73;;
6953;SDS011;3516;47.980;8.808;2023-04-01T12:25:57;0.50;;;0.50;;
6953;SDS011;3516;47.980;8.808;2023-04-01T12:28:39;0.50;;;0.45;;
6953;SDS011;3516;47.980;8.808;2023-04-01T12:31:15;0.35;;;0.30;;
6953;SDS011;3516;47.980;8.808;2023-04-01T12:34:15;0.52;;;0.35;;
6953;SDS011;3516;47.980;8.808;2023-04-01T12:37:08;0.30;;;0.30;;
6953;SDS011;3516;47.980;8.808;2023-04-01T12:39:48;0.30;;;0.30;;
6953;SDS011;3516;47.980;8.808;2023-04-01T12:42:31;0.30;;;0.30;;
6953;SDS011;3516;47.980;8.808;2023-04-01T12:45:18;0.35;;;0.35;;
6953;SDS011;3516;47.980;8.808;2023-04-01T12:51:07;0.40;;;0.40;;
6953;SDS011;3516;47.980;8.808;2023-04-01T12:53:51;0.30;;;0.30;;
6953;SDS011;3516;47.980;8.808;2023-04-01T12:56:32;0.30;;;0.30;;
6953;SDS011;3516;47.980;8.808;2023-04-01T13:02:07;0.30;;;0.30;;
6953;SDS011;3516;47.980;8.808;2023-04-01T13:04:47;0.40;;;0.40;;
6953;SDS011;3516;47.980;8.808;2023-04-01T13:10:32;0.30;;;0.30;;
6953;SDS011;3516;47.980;8.808;2023-04-01T13:16:07;0.82;;;0.30;;
6953;SDS011;3516;47.980;8.808;2023-04-01T13:18:43;0.30;;;0.30;;
6953;SDS011;3516;47.980;8.808;2023-04-01T13:21:21;0.30;;;0.30;;
6953;SDS011;3516;47.980;8.808;2023-04-01T13:23:55;0.30;;;0.30;;
6953;SDS011;3516;47.980;8.808;2023-04-01T13:26:26;0.30;;;0.30;;
6953;SDS011;3516;47.980;8.808;2023-04-01T13:28:57;0.30;;;0.30;;
6953;SDS011;3516;47.980;8.808;2023-04-01T13:31:29;0.40;;;0.40;;
6953;SDS011;3516;47.980;8.808;2023-04-01T13:34:00;0.30;;;0.30;;
6953;SDS011;3516;47.980;8.808;2023-04-01T13:36:33;1.20;;;0.40;;
6953;SDS011;3516;47.980;8.808;2023-04-01T13:39:10;0.30;;;0.30;;
6953;SDS011;3516;47.980;8.808;2023-04-01T13:41:44;0.30;;;0.30;;
6953;SDS011;3516;47.980;8.808;2023-04-01T13:44:13;0.45;;;0.30;;
6953;SDS011;3516;47.980;8.808;2023-04-01T13:49:37;0.22;;;0.22;;
6953;SDS011;3516;47.980;8.808;2023-04-01T13:54:58;0.30;;;0.30;;
6953;SDS011;3516;47.980;8.808;2023-04-01T13:57:42;0.30;;;0.30;;
6953;SDS011;3516;47.980;8.808;2023-04-01T14:00:19;0.30;;;0.30;;
6953;SDS011;3516;47.980;8.808;2023-04-01T14:02:51;0.30;;;0.30;;
6953;SDS011;3516;47.980;8.808;2023-04-01T14:05:34;0.30;;;0.30;;
6953;SDS011;3516;47.980;8.808;2023-04-01T14:08:05;0.35;;;0.35;;
6953;SDS011;3516;47.980;8.808;2023-04-01T14:10:36;1.45;;;0.40;;
6953;SDS011;3516;47.980;8.808;2023-04-01T14:13:08;0.32;;;0.32;;
6953;SDS011;3516;47.980;8.808;2023-04-01T14:15:41;0.35;;;0.35;;
6953;SDS011;3516;47.980;8.808;2023-04-01T14:18:13;0.50;;;0.50;;
6953;SDS011;3516;47.980;8.808;2023-04-01T14:20:44;0.40;;;0.40;;
6953;SDS011;3516;47.980;8.808;2023-04-01T14:23:24;0.57;;;0.57;;
6953;SDS011;3516;47.980;8.808;2023-04-01T14:26:03;2.28;;;0.90;;
6953;SDS011;3516;47.980;8.808;2023-04-01T14:28:43;0.60;;;0.60;;
6953;SDS011;3516;47.980;8.808;2023-04-01T14:31:32;1.08;;;1.02;;
6953;SDS011;3516;47.980;8.808;2023-04-01T14:34:09;3.45;;;3.25;;
6953;SDS011;3516;47.980;8.808;2023-04-01T14:40:05;1.15;;;1.13;;
6953;SDS011;3516;47.980;8.808;2023-04-01T14:42:55;1.33;;;1.30;;
6953;SDS011;3516;47.980;8.808;2023-04-01T14:45:50;0.88;;;0.88;;
6953;SDS011;3516;47.980;8.808;2023-04-01T14:48:27;0.82;;;0.50;;
6953;SDS011;3516;47.980;8.808;2023-04-01T14:51:02;0.30;;;0.30;;
6953;SDS011;3516;47.980;8.808;2023-04-01T14:53:37;0.30;;;0.30;;
6953;SDS011;3516;47.980;8.808;2023-04-01T14:56:10;0.30;;;0.30;;
6953;SDS011;3516;47.980;8.808;2023-04-01T14:58:41;0.30;;;0.30;;
6953;SDS011;3516;47.980;8.808;2023-04-01T15:01:17;0.50;;;0.50;;
6953;SDS011;3516;47.980;8.808;2023-04-01T15:03:57;0.40;;;0.40;;
6953;SDS011;3516;47.980;8.808;2023-04-01T15:06:51;0.63;;;0.50;;
6953;SDS011;3516;47.980;8.808;2023-04-01T15:09:40;0.30;;;0.30;;
6953;SDS011;3516;47.980;8.808;2023-04-01T15:12:18;0.88;;;0.52;;
6953;SDS011;3516;47.980;8.808;2023-04-01T15:15:03;0.52;;;0.50;;
6953;SDS011;3516;47.980;8.808;2023-04-01T15:17:48;0.40;;;0.40;;
6953;SDS011;3516;47.980;8.808;2023-04-01T15:20:28;0.77;;;0.50;;
6953;SDS011;3516;47.980;8.808;2023-04-01T15:23:11;0.50;;;0.50;;
6953;SDS011;3516;47.980;8.808;2023-04-01T15:25:58;1.15;;;0.60;;
6953;SDS011;3516;47.980;8.808;2023-04-01T15:28:39;0.50;;;0.50;;
6953;SDS011;3516;47.980;8.808;2023-04-01T15:31:13;1.08;;;0.52;;
6953;SDS011;3516;47.980;8.808;2023-04-01T15:33:47;0.57;;;0.57;;
6953;SDS011;3516;47.980;8.808;2023-04-01T15:36:25;0.43;;;0.40;;
6953;SDS011;3516;47.980;8.808;2023-04-01T15:39:01;0.40;;;0.40;;
6953;SDS011;3516;47.980;8.808;2023-04-01T15:41:39;1.42;;;0.50;;
6953;SDS011;3516;47.980;8.808;2023-04-01T15:47:23;2.03;;;0.57;;
6953;SDS011;3516;47.980;8.808;2023-04-01T15:52:55;2.20;;;0.60;;
6953;SDS011;3516;47.980;8.808;2023-04-01T15:55:37;2.35;;;0.82;;
6953;SDS011;3516;47.980;8.808;2023-04-01T15:58:24;0.40;;;0.40;;
6953;SDS011;3516;47.980;8.808;2023-04-01T16:01:07;0.30;;;0.30;;
6953;SDS011;3516;47.980;8.808;2023-04-01T16:03:46;1.60;;;0.80;;
6953;SDS011;3516;47.980;8.808;2023-04-01T16:06:31;4.53;;;1.15;;
6953;SDS011;3516;47.980;8.808;2023-04-01T16:12:15;0.60;;;0.60;;
6953;SDS011;3516;47.980;8.808;2023-04-01T16:14:48;0.70;;;0.70;;
6953;SDS011;3516;47.980;8.808;2023-04-01T16:17:27;0.50;;;0.50;;
6953;SDS011;3516;47.980;8.808;2023-04-01T16:20:02;0.40;;;0.40;;
6953;SDS011;3516;47.980;8.808;2023-04-01T16:22:45;0.47;;;0.47;;
6953;SDS011;3516;47.980;8.808;2023-04-01T16:25:19;0.43;;;0.43;;
6953;SDS011;3516;47.980;8.808;2023-04-01T16:27:56;0.85;;;0.50;;
6953;SDS011;3516;47.980;8.808;2023-04-01T16:30:36;0.73;;;0.73;;
6953;SDS011;3516;47.980;8.808;2023-04-01T16:33:10;2.72;;;1.30;;
6953;SDS011;3516;47.980;8.808;2023-04-01T16:35:43;0.85;;;0.75;;
6953;SDS011;3516;47.980;8.808;2023-04-01T16:38:15;0.65;;;0.65;;
6953;SDS011;3516;47.980;8.808;2023-04-01T16:40:50;0.57;;;0.55;;
6953;SDS011;3516;47.980;8.808;2023-04-01T16:43:28;0.57;;;0.57;;
6953;SDS011;3516;47.980;8.808;2023-04-01T16:49:03;1.85;;;0.90;;
6953;SDS011;3516;47.980;8.808;2023-04-01T16:51:44;0.75;;;0.75;;
6953;SDS011;3516;47.980;8.808;2023-04-01T16:54:15;0.80;;;0.80;;
6953;SDS011;3516;47.980;8.808;2023-04-01T16:56:53;0.60;;;0.60;;
6953;SDS011;3516;47.980;8.808;2023-04-01T16:59:22;0.90;;;0.90;;
6953;SDS011;3516;47.980;8.808;2023-04-01T17:01:55;0.68;;;0.50;;
6953;SDS011;3516;47.980;8.808;2023-04-01T17:04:30;0.93;;;0.93;;
6953;SDS011;3516;47.980;8.808;2023-04-01T17:07:02;0.60;;;0.60;;
6953;SDS011;3516;47.980;8.808;2023-04-01T17:09:44;0.90;;;0.90;;
6953;SDS011;3516;47.980;8.808;2023-04-01T17:12:24;0.60;;;0.60;;
6953;SDS011;3516;47.980;8.808;2023-04-01T17:14:56;0.73;;;0.73;;
6953;SDS011;3516;47.980;8.808;2023-04-01T17:17:33;0.80;;;0.80;;
6953;SDS011;3516;47.980;8.808;2023-04-01T17:20:09;0.60;;;0.60;;
6953;SDS011;3516;47.980;8.808;2023-04-01T17:22:58;0.90;;;0.90;;
6953;SDS011;3516;47.980;8.808;2023-04-01T17:25:37;2.47;;;0.93;;
6953;SDS011;3516;47.980;8.808;2023-04-01T17:28:26;0.70;;;0.70;;
6953;SDS011;3516;47.980;8.808;2023-04-01T17:31:02;0.90;;;0.90;;
6953;SDS011;3516;47.980;8.808;2023-04-01T17:33:43;0.82;;;0.82;;
6953;SDS011;3516;47.980;8.808;2023-04-01T17:36:24;0.65;;;0.65;;
6953;SDS011;3516;47.980;8.808;2023-04-01T17:39:22;0.63;;;0.63;;
6953;SDS011;3516;47.980;8.808;2023-04-01T17:42:04;1.10;;;0.98;;
6953;SDS011;3516;47.980;8.808;2023-04-01T17:44:38;1.48;;;1.08;;
6953;SDS011;3516;47.980;8.808;2023-04-01T17:47:31;1.92;;;1.83;;
6953;SDS011;3516;47.980;8.808;2023-04-01T17:50:20;1.75;;;1.65;;
6953;SDS011;3516;47.980;8.808;2023-04-01T17:52:53;1.45;;;1.45;;
6953;SDS011;3516;47.980;8.808;2023-04-01T17:55:40;1.30;;;1.30;;
6953;SDS011;3516;47.980;8.808;2023-04-01T17:58:14;1.02;;;1.02;;
6953;SDS011;3516;47.980;8.808;2023-04-01T18:00:55;0.90;;;0.90;;
6953;SDS011;3516;47.980;8.808;2023-04-01T18:06:35;0.60;;;0.60;;
6953;SDS011;3516;47.980;8.808;2023-04-01T18:09:09;0.60;;;0.60;;
6953;SDS011;3516;47.980;8.808;2023-04-01T18:11:53;0.70;;;0.70;;
6953;SDS011;3516;47.980;8.808;2023-04-01T18:14:30;0.80;;;0.80;;
6953;SDS011;3516;47.980;8.808;2023-04-01T18:17:21;0.65;;;0.65;;
6953;SDS011;3516;47.980;8.808;2023-04-01T18:19:57;0.70;;;0.70;;
6953;SDS011;3516;47.980;8.808;2023-04-01T18:22:45;0.75;;;0.75;;
6953;SDS011;3516;47.980;8.808;2023-04-01T18:25:18;0.60;;;0.60;;
6953;SDS011;3516;47.980;8.808;2023-04-01T18:27:50;0.43;;;0.43;;
6953;SDS011;3516;47.980;8.808;2023-04-01T18:30:21;0.50;;;0.50;;
6953;SDS011;3516;47.980;8.808;2023-04-01T18:32:55;0.45;;;0.45;;
6953;SDS011;3516;47.980;8.808;2023-04-01T18:35:29;0.55;;;0.55;;
6953;SDS011;3516;47.980;8.808;2023-04-01T18:38:12;0.50;;;0.50;;
6953;SDS011;3516;47.980;8.808;2023-04-01T18:40:42;0.45;;;0.45;;
6953;SDS011;3516;47.980;8.808;2023-04-01T18:43:16;0.50;;;0.50;;
6953;SDS011;3516;47.980;8.808;2023-04-01T18:45:50;0.60;;;0.60;;
6953;SDS011;3516;47.980;8.808;2023-04-01T18:48:32;0.65;;;0.52;;
6953;SDS011;3516;47.980;8.808;2023-04-01T18:51:10;0.60;;;0.60;;
6953;SDS011;3516;47.980;8.808;2023-04-01T18:53:43;1.50;;;0.80;;
6953;SDS011;3516;47.980;8.808;2023-04-01T18:56:15;1.55;;;1.45;;
6953;SDS011;3516;47.980;8.808;2023-04-01T18:58:52;1.20;;;1.20;;
6953;SDS011;3516;47.980;8.808;2023-04-01T19:01:26;1.10;;;1.10;;
6953;SDS011;3516;47.980;8.808;2023-04-01T19:04:03;1.45;;;1.45;;
6953;SDS011;3516;47.980;8.808;2023-04-01T19:06:41;1.55;;;1.55;;
6953;SDS011;3516;47.980;8.808;2023-04-01T19:09:18;1.60;;;1.52;;
6953;SDS011;3516;47.980;8.808;2023-04-01T19:11:49;1.65;;;1.55;;
6953;SDS011;3516;47.980;8.808;2023-04-01T19:14:27;1.35;;;1.35;;
6953;SDS011;3516;47.980;8.808;2023-04-01T19:17:06;1.60;;;1.60;;
6953;SDS011;3516;47.980;8.808;2023-04-01T19:19:44;1.85;;;1.80;;
6953;SDS011;3516;47.980;8.808;2023-04-01T19:22:20;1.60;;;1.60;;
6953;SDS011;3516;47.980;8.808;2023-04-01T19:25:13;1.63;;;1.52;;
6953;SDS011;3516;47.980;8.808;2023-04-01T19:27:53;1.52;;;1.42;;
6953;SDS011;3516;47.980;8.808;2023-04-01T19:30:28;1.42;;;1.42;;
6953;SDS011;3516;47.980;8.808;2023-04-01T19:33:09;1.90;;;1.80;;
6953;SDS011;3516;47.980;8.808;2023-04-01T19:35:47;1.40;;;1.40;;
6953;SDS011;3516;47.980;8.808;2023-04-01T19:38:19;1.38;;;1.38;;
6953;SDS011;3516;47.980;8.808;2023-04-01T19:40:55;1.40;;;1.40;;
6953;SDS011;3516;47.980;8.808;2023-04-01T19:46:23;1.30;;;1.20;;
6953;SDS011;3516;47.980;8.808;2023-04-01T19:49:00;1.45;;;1.45;;
6953;SDS011;3516;47.980;8.808;2023-04-01T19:51:39;1.17;;;1.17;;
6953;SDS011;3516;47.980;8.808;2023-04-01T19:54:18;0.90;;;0.90;;
6953;SDS011;3516;47.980;8.808;2023-04-01T19:56:56;0.90;;;0.90;;
6953;SDS011;3516;47.980;8.808;2023-04-01T19:59:31;1.08;;;1.08;;
6953;SDS011;3516;47.980;8.808;2023-04-01T20:02:04;1.02;;;1.02;;
6953;SDS011;3516;47.980;8.808;2023-04-01T20:04:53;1.20;;;1.20;;
6953;SDS011;3516;47.980;8.808;2023-04-01T20:07:22;1.20;;;1.20;;
6953;SDS011;3516;47.980;8.808;2023-04-01T20:09:54;0.93;;;0.93;;
6953;SDS011;3516;47.980;8.808;2023-04-01T20:12:34;0.77;;;0.77;;
6953;SDS011;3516;47.980;8.808;2023-04-01T20:15:20;1.35;;;1.33;;
6953;SDS011;3516;47.980;8.808;2023-04-01T20:17:53;0.60;;;0.60;;
6953;SDS011;3516;47.980;8.808;2023-04-01T20:20:23;1.08;;;1.08;;
6953;SDS011;3516;47.980;8.808;2023-04-01T20:22:55;0.75;;;0.70;;
6953;SDS011;3516;47.980;8.808;2023-04-01T20:25:45;0.60;;;0.60;;
6953;SDS011;3516;47.980;8.808;2023-04-01T20:28:21;0.80;;;0.80;;
6953;SDS011;3516;47.980;8.808;2023-04-01T20:31:04;0.70;;;0.70;;
6953;SDS011;3516;47.980;8.808;2023-04-01T20:34:03;0.80;;;0.80;;
6953;SDS011;3516;47.980;8.808;2023-04-01T20:36:39;1.23;;;1.23;;
6953;SDS011;3516;47.980;8.808;2023-04-01T20:39:21;1.30;;;1.30;;
6953;SDS011;3516;47.980;8.808;2023-04-01T20:42:04;1.05;;;1.05;;
6953;SDS011;3516;47.980;8.808;2023-04-01T20:44:57;0.90;;;0.90;;
6953;SDS011;3516;47.980;8.808;2023-04-01T20:47:42;0.90;;;0.90;;
6953;SDS011;3516;47.980;8.808;2023-04-01T20:50:22;0.80;;;0.80;;
6953;SDS011;3516;47.980;8.808;2023-04-01T20:52:56;0.93;;;0.70;;
6953;SDS011;3516;47.980;8.808;2023-04-01T20:55:30;1.25;;;1.23;;
6953;SDS011;3516;47.980;8.808;2023-04-01T20:58:20;0.93;;;0.93;;
6953;SDS011;3516;47.980;8.808;2023-04-01T21:00:58;0.93;;;0.93;;
6953;SDS011;3516;47.980;8.808;2023-04-01T21:03:38;3.40;;;1.65;;
6953;SDS011;3516;47.980;8.808;2023-04-01T21:06:20;1.20;;;1.20;;
6953;SDS011;3516;47.980;8.808;2023-04-01T21:09:02;1.25;;;1.20;;
6953;SDS011;3516;47.980;8.808;2023-04-01T21:11:45;1.00;;;1.00;;
6953;SDS011;3516;47.980;8.808;2023-04-01T21:14:35;0.95;;;0.95;;
6953;SDS011;3516;47.980;8.808;2023-04-01T21:17:26;0.90;;;0.90;;
6953;SDS011;3516;47.980;8.808;2023-04-01T21:20:04;0.80;;;0.80;;
6953;SDS011;3516;47.980;8.808;2023-04-01T21:22:50;0.90;;;0.90;;
6953;SDS011;3516;47.980;8.808;2023-04-01T21:25:26;0.90;;;0.90;;
6953;SDS011;3516;47.980;8.808;2023-04-01T21:28:00;1.00;;;1.00;;
6953;SDS011;3516;47.980;8.808;2023-04-01T21:30:41;0.90;;;0.90;;
6953;SDS011;3516;47.980;8.808;2023-04-01T21:36:15;1.00;;;1.00;;
6953;SDS011;3516;47.980;8.808;2023-04-01T21:38:55;1.33;;;1.23;;
6953;SDS011;3516;47.980;8.808;2023-04-01T21:41:34;1.23;;;1.23;;
6953;SDS011;3516;47.980;8.808;2023-04-01T21:44:33;1.30;;;1.30;;
6953;SDS011;3516;47.980;8.808;2023-04-01T21:53:23;1.13;;;1.13;;
6953;SDS011;3516;47.980;8.808;2023-04-01T21:56:16;1.23;;;1.23;;
6953;SDS011;3516;47.980;8.808;2023-04-01T21:59:24;1.10;;;1.10;;
6953;SDS011;3516;47.980;8.808;2023-04-01T22:02:21;1.20;;;1.20;;
6953;SDS011;3516;47.980;8.808;2023-04-01T22:05:12;0.90;;;0.90;;
6953;SDS011;3516;47.980;8.808;2023-04-01T22:07:44;0.80;;;0.80;;
6953;SDS011;3516;47.980;8.808;2023-04-01T22:10:16;0.90;;;0.90;;
6953;SDS011;3516;47.980;8.808;2023-04-01T22:12:53;0.80;;;0.80;;
6953;SDS011;3516;47.980;8.808;2023-04-01T22:15:25;0.85;;;0.85;;
6953;SDS011;3516;47.980;8.808;2023-04-01T22:17:58;0.88;;;0.88;;
6953;SDS011;3516;47.980;8.808;2023-04-01T22:20:31;0.60;;;0.60;;
6953;SDS011;3516;47.980;8.808;2023-04-01T22:23:10;0.80;;;0.80;;
6953;SDS011;3516;47.980;8.808;2023-04-01T22:25:45;0.60;;;0.60;;
6953;SDS011;3516;47.980;8.808;2023-04-01T22:28:19;0.75;;;0.75;;
6953;SDS011;3516;47.980;8.808;2023-04-01T22:30:54;0.95;;;0.95;;
6953;SDS011;3516;47.980;8.808;2023-04-01T22:33:27;1.38;;;0.77;;
6953;SDS011;3516;47.980;8.808;2023-04-01T22:36:01;0.82;;;0.82;;
6953;SDS011;3516;47.980;8.808;2023-04-01T22:38:41;1.15;;;1.15;;
6953;SDS011;3516;47.980;8.808;2023-04-01T22:41:22;1.55;;;1.45;;
6953;SDS011;3516;47.980;8.808;2023-04-01T22:43:57;1.23;;;1.23;;
6953;SDS011;3516;47.980;8.808;2023-04-01T22:46:36;1.40;;;1.30;;
6953;SDS011;3516;47.980;8.808;2023-04-01T22:49:15;1.30;;;1.20;;
6953;SDS011;3516;47.980;8.808;2023-04-01T22:51:47;1.20;;;1.17;;
6953;SDS011;3516;47.980;8.808;2023-04-01T22:54:21;1.40;;;1.40;;
6953;SDS011;3516;47.980;8.808;2023-04-01T22:56:53;1.20;;;1.20;;
6953;SDS011;3516;47.980;8.808;2023-04-01T22:59:24;1.10;;;1.00;;
6953;SDS011;3516;47.980;8.808;2023-04-01T23:01:58;1.20;;;1.20;;